sensor_id;sensor_type;location;lat;lon;timestamp;pressure;altitude;pressure_sealevel;temperature
69545;BMP180;56766;52.260;20.746;2023-05-07T00:00:22;101066.80;;;5.30
69545;BMP180;56766;52.260;20.746;2023-05-07T00:03:09;101067.80;;;5.30
69545;BMP180;56766;52.260;20.746;2023-05-07T00:05:37;101066.40;;;5.30
69545;BMP180;56766;52.260;20.746;2023-05-07T00:08:04;101066.60;;;5.30
69545;BMP180;56766;52.260;20.746;2023-05-07T00:10:32;101064.60;;;5.28
69545;BMP180;56766;52.260;20.746;2023-05-07T00:12:59;101063.60;;;5.26
69545;BMP180;56766;52.260;20.746;2023-05-07T00:15:26;101071.20;;;5.28
69545;BMP180;56766;52.260;20.746;2023-05-07T00:17:56;101068.60;;;5.28
69545;BMP180;56766;52.260;20.746;2023-05-07T00:20:26;101072.00;;;5.28
69545;BMP180;56766;52.260;20.746;2023-05-07T00:22:53;101078.40;;;5.28
69545;BMP180;56766;52.260;20.746;2023-05-07T00:25:20;101080.60;;;5.26
69545;BMP180;56766;52.260;20.746;2023-05-07T00:27:48;101077.20;;;5.30
69545;BMP180;56766;52.260;20.746;2023-05-07T00:30:16;101079.80;;;5.22
69545;BMP180;56766;52.260;20.746;2023-05-07T00:32:42;101081.60;;;5.20
69545;BMP180;56766;52.260;20.746;2023-05-07T00:35:12;101091.40;;;5.24
69545;BMP180;56766;52.260;20.746;2023-05-07T00:37:38;101090.00;;;5.22
69545;BMP180;56766;52.260;20.746;2023-05-07T00:40:07;101084.20;;;5.20
69545;BMP180;56766;52.260;20.746;2023-05-07T00:42:34;101090.20;;;5.20
69545;BMP180;56766;52.260;20.746;2023-05-07T00:45:01;101088.60;;;5.20
69545;BMP180;56766;52.260;20.746;2023-05-07T00:47:28;101091.00;;;5.20
69545;BMP180;56766;52.260;20.746;2023-05-07T00:49:54;101102.20;;;5.20
69545;BMP180;56766;52.260;20.746;2023-05-07T00:52:24;101100.80;;;5.20
69545;BMP180;56766;52.260;20.746;2023-05-07T00:54:54;101108.80;;;5.20
69545;BMP180;56766;52.260;20.746;2023-05-07T00:57:21;101105.40;;;5.20
69545;BMP180;56766;52.260;20.746;2023-05-07T00:59:51;101107.40;;;5.20
69545;BMP180;56766;52.260;20.746;2023-05-07T01:02:18;101111.60;;;5.20
69545;BMP180;56766;52.260;20.746;2023-05-07T01:04:45;101110.60;;;5.20
69545;BMP180;56766;52.260;20.746;2023-05-07T01:07:12;101113.60;;;5.20
69545;BMP180;56766;52.260;20.746;2023-05-07T01:09:39;101108.00;;;5.20
69545;BMP180;56766;52.260;20.746;2023-05-07T01:12:07;101109.40;;;5.10
69545;BMP180;56766;52.260;20.746;2023-05-07T01:14:34;101104.80;;;5.10
69545;BMP180;56766;52.260;20.746;2023-05-07T01:17:01;101107.60;;;5.10
69545;BMP180;56766;52.260;20.746;2023-05-07T01:19:29;101100.80;;;5.10
69545;BMP180;56766;52.260;20.746;2023-05-07T01:22:07;101105.40;;;5.10
69545;BMP180;56766;52.260;20.746;2023-05-07T01:24:37;101104.40;;;5.10
69545;BMP180;56766;52.260;20.746;2023-05-07T01:27:04;101101.60;;;5.10
69545;BMP180;56766;52.260;20.746;2023-05-07T01:29:30;101113.20;;;5.06
69545;BMP180;56766;52.260;20.746;2023-05-07T01:32:05;101111.00;;;5.00
69545;BMP180;56766;52.260;20.746;2023-05-07T01:34:37;101110.60;;;5.00
69545;BMP180;56766;52.260;20.746;2023-05-07T01:37:03;101114.80;;;5.00
69545;BMP180;56766;52.260;20.746;2023-05-07T01:39:32;101110.00;;;5.00
69545;BMP180;56766;52.260;20.746;2023-05-07T01:41:59;101117.00;;;5.00
69545;BMP180;56766;52.260;20.746;2023-05-07T01:44:28;101114.60;;;5.00
69545;BMP180;56766;52.260;20.746;2023-05-07T01:46:56;101105.80;;;4.98
69545;BMP180;56766;52.260;20.746;2023-05-07T01:49:22;101103.60;;;4.98
69545;BMP180;56766;52.260;20.746;2023-05-07T01:51:49;101104.40;;;4.92
69545;BMP180;56766;52.260;20.746;2023-05-07T01:54:16;101103.20;;;4.92
69545;BMP180;56766;52.260;20.746;2023-05-07T01:56:42;101103.40;;;4.90
69545;BMP180;56766;52.260;20.746;2023-05-07T01:59:09;101105.80;;;4.90
69545;BMP180;56766;52.260;20.746;2023-05-07T02:01:35;101105.40;;;4.90
69545;BMP180;56766;52.260;20.746;2023-05-07T02:04:01;101104.00;;;4.90
69545;BMP180;56766;52.260;20.746;2023-05-07T02:06:28;101102.80;;;4.90
69545;BMP180;56766;52.260;20.746;2023-05-07T02:08:54;101106.80;;;4.82
69545;BMP180;56766;52.260;20.746;2023-05-07T02:11:20;101104.60;;;4.80
69545;BMP180;56766;52.260;20.746;2023-05-07T02:13:47;101107.20;;;4.80
69545;BMP180;56766;52.260;20.746;2023-05-07T02:16:13;101098.60;;;4.80
69545;BMP180;56766;52.260;20.746;2023-05-07T02:18:40;101103.80;;;4.80
69545;BMP180;56766;52.260;20.746;2023-05-07T02:21:06;101106.20;;;4.80
69545;BMP180;56766;52.260;20.746;2023-05-07T02:23:33;101105.60;;;4.80
69545;BMP180;56766;52.260;20.746;2023-05-07T02:26:00;101107.80;;;4.80
69545;BMP180;56766;52.260;20.746;2023-05-07T02:28:26;101104.80;;;4.80
69545;BMP180;56766;52.260;20.746;2023-05-07T02:30:52;101113.40;;;4.80
69545;BMP180;56766;52.260;20.746;2023-05-07T02:33:19;101111.60;;;4.80
69545;BMP180;56766;52.260;20.746;2023-05-07T02:35:46;101110.00;;;4.78
69545;BMP180;56766;52.260;20.746;2023-05-07T02:38:12;101120.20;;;4.70
69545;BMP180;56766;52.260;20.746;2023-05-07T02:40:38;101117.40;;;4.72
69545;BMP180;56766;52.260;20.746;2023-05-07T02:43:06;101120.20;;;4.76
69545;BMP180;56766;52.260;20.746;2023-05-07T02:45:33;101117.00;;;4.70
69545;BMP180;56766;52.260;20.746;2023-05-07T02:47:59;101121.80;;;4.76
69545;BMP180;56766;52.260;20.746;2023-05-07T02:50:25;101118.60;;;4.70
69545;BMP180;56766;52.260;20.746;2023-05-07T02:52:53;101123.00;;;4.70
69545;BMP180;56766;52.260;20.746;2023-05-07T02:55:19;101123.00;;;4.72
69545;BMP180;56766;52.260;20.746;2023-05-07T02:57:46;101124.60;;;4.70
69545;BMP180;56766;52.260;20.746;2023-05-07T03:00:20;101123.80;;;4.70
69545;BMP180;56766;52.260;20.746;2023-05-07T03:02:46;101126.60;;;4.70
69545;BMP180;56766;52.260;20.746;2023-05-07T03:05:13;101128.20;;;4.72
69545;BMP180;56766;52.260;20.746;2023-05-07T03:07:40;101122.40;;;4.70
69545;BMP180;56766;52.260;20.746;2023-05-07T03:10:09;101129.00;;;4.70
69545;BMP180;56766;52.260;20.746;2023-05-07T03:12:36;101127.20;;;4.70
69545;BMP180;56766;52.260;20.746;2023-05-07T03:15:02;101128.80;;;4.70
69545;BMP180;56766;52.260;20.746;2023-05-07T03:17:29;101132.20;;;4.74
69545;BMP180;56766;52.260;20.746;2023-05-07T03:19:55;101137.80;;;4.76
69545;BMP180;56766;52.260;20.746;2023-05-07T03:22:21;101137.80;;;4.72
69545;BMP180;56766;52.260;20.746;2023-05-07T03:24:48;101146.60;;;4.76
69545;BMP180;56766;52.260;20.746;2023-05-07T03:27:16;101146.00;;;4.80
69545;BMP180;56766;52.260;20.746;2023-05-07T03:29:42;101144.20;;;4.80
69545;BMP180;56766;52.260;20.746;2023-05-07T03:32:08;101149.80;;;4.80
69545;BMP180;56766;52.260;20.746;2023-05-07T03:34:35;101155.40;;;4.80
69545;BMP180;56766;52.260;20.746;2023-05-07T03:37:02;101158.40;;;4.80
69545;BMP180;56766;52.260;20.746;2023-05-07T03:39:29;101156.80;;;4.80
69545;BMP180;56766;52.260;20.746;2023-05-07T03:41:55;101165.00;;;4.80
69545;BMP180;56766;52.260;20.746;2023-05-07T03:44:21;101167.20;;;4.82
69545;BMP180;56766;52.260;20.746;2023-05-07T03:46:47;101168.40;;;4.80
69545;BMP180;56766;52.260;20.746;2023-05-07T03:49:14;101174.00;;;4.90
69545;BMP180;56766;52.260;20.746;2023-05-07T03:51:40;101173.20;;;4.90
69545;BMP180;56766;52.260;20.746;2023-05-07T03:54:09;101173.80;;;4.90
69545;BMP180;56766;52.260;20.746;2023-05-07T03:56:36;101177.20;;;4.90
69545;BMP180;56766;52.260;20.746;2023-05-07T03:59:02;101169.20;;;4.90
69545;BMP180;56766;52.260;20.746;2023-05-07T04:01:29;101178.40;;;4.90
69545;BMP180;56766;52.260;20.746;2023-05-07T04:03:55;101175.80;;;4.90
69545;BMP180;56766;52.260;20.746;2023-05-07T04:06:22;101185.80;;;4.90
69545;BMP180;56766;52.260;20.746;2023-05-07T04:08:48;101190.20;;;4.90
69545;BMP180;56766;52.260;20.746;2023-05-07T04:11:14;101191.80;;;4.96
69545;BMP180;56766;52.260;20.746;2023-05-07T04:13:41;101189.20;;;5.00
69545;BMP180;56766;52.260;20.746;2023-05-07T04:16:07;101193.20;;;5.00
69545;BMP180;56766;52.260;20.746;2023-05-07T04:18:34;101201.80;;;5.00
69545;BMP180;56766;52.260;20.746;2023-05-07T04:21:00;101202.80;;;5.00
69545;BMP180;56766;52.260;20.746;2023-05-07T04:23:26;101201.20;;;5.02
69545;BMP180;56766;52.260;20.746;2023-05-07T04:25:54;101202.20;;;5.04
69545;BMP180;56766;52.260;20.746;2023-05-07T04:28:21;101200.40;;;5.10
69545;BMP180;56766;52.260;20.746;2023-05-07T04:30:48;101200.40;;;5.10
69545;BMP180;56766;52.260;20.746;2023-05-07T04:33:15;101205.80;;;5.10
69545;BMP180;56766;52.260;20.746;2023-05-07T04:35:45;101206.80;;;5.10
69545;BMP180;56766;52.260;20.746;2023-05-07T04:38:13;101209.40;;;5.10
69545;BMP180;56766;52.260;20.746;2023-05-07T04:40:39;101215.00;;;5.12
69545;BMP180;56766;52.260;20.746;2023-05-07T04:43:05;101215.60;;;5.20
69545;BMP180;56766;52.260;20.746;2023-05-07T04:45:32;101216.40;;;5.20
69545;BMP180;56766;52.260;20.746;2023-05-07T04:47:58;101218.00;;;5.20
69545;BMP180;56766;52.260;20.746;2023-05-07T04:50:24;101219.20;;;5.30
69545;BMP180;56766;52.260;20.746;2023-05-07T04:52:50;101220.20;;;5.34
69545;BMP180;56766;52.260;20.746;2023-05-07T04:55:17;101228.00;;;5.40
69545;BMP180;56766;52.260;20.746;2023-05-07T04:57:43;101226.40;;;5.48
69545;BMP180;56766;52.260;20.746;2023-05-07T05:00:10;101228.20;;;5.50
69545;BMP180;56766;52.260;20.746;2023-05-07T05:02:36;101228.80;;;5.50
69545;BMP180;56766;52.260;20.746;2023-05-07T05:05:03;101232.40;;;5.56
69545;BMP180;56766;52.260;20.746;2023-05-07T05:07:31;101232.40;;;5.60
69545;BMP180;56766;52.260;20.746;2023-05-07T05:09:57;101232.40;;;5.62
69545;BMP180;56766;52.260;20.746;2023-05-07T05:12:24;101235.80;;;5.70
69545;BMP180;56766;52.260;20.746;2023-05-07T05:14:50;101237.80;;;5.80
69545;BMP180;56766;52.260;20.746;2023-05-07T05:17:16;101237.80;;;5.80
69545;BMP180;56766;52.260;20.746;2023-05-07T05:19:42;101238.20;;;5.90
69545;BMP180;56766;52.260;20.746;2023-05-07T05:22:08;101247.60;;;6.00
69545;BMP180;56766;52.260;20.746;2023-05-07T05:24:35;101241.20;;;6.10
69545;BMP180;56766;52.260;20.746;2023-05-07T05:27:01;101247.80;;;6.10
69545;BMP180;56766;52.260;20.746;2023-05-07T05:29:27;101247.20;;;6.20
69545;BMP180;56766;52.260;20.746;2023-05-07T05:31:54;101246.00;;;6.40
69545;BMP180;56766;52.260;20.746;2023-05-07T05:34:20;101244.80;;;6.58
69545;BMP180;56766;52.260;20.746;2023-05-07T05:36:47;101246.60;;;6.70
69545;BMP180;56766;52.260;20.746;2023-05-07T05:39:14;101250.40;;;6.98
69545;BMP180;56766;52.260;20.746;2023-05-07T05:41:40;101244.40;;;7.18
69545;BMP180;56766;52.260;20.746;2023-05-07T05:44:06;101248.20;;;7.20
69545;BMP180;56766;52.260;20.746;2023-05-07T05:46:32;101249.20;;;7.20
69545;BMP180;56766;52.260;20.746;2023-05-07T05:48:59;101247.80;;;7.18
69545;BMP180;56766;52.260;20.746;2023-05-07T05:51:25;101255.40;;;7.10
69545;BMP180;56766;52.260;20.746;2023-05-07T05:53:52;101253.00;;;7.10
69545;BMP180;56766;52.260;20.746;2023-05-07T05:56:19;101253.80;;;7.00
69545;BMP180;56766;52.260;20.746;2023-05-07T05:58:46;101266.20;;;6.90
69545;BMP180;56766;52.260;20.746;2023-05-07T06:01:12;101275.60;;;6.80
69545;BMP180;56766;52.260;20.746;2023-05-07T06:03:38;101268.40;;;6.80
69545;BMP180;56766;52.260;20.746;2023-05-07T06:06:05;101278.60;;;6.80
69545;BMP180;56766;52.260;20.746;2023-05-07T06:08:31;101277.00;;;6.70
69545;BMP180;56766;52.260;20.746;2023-05-07T06:10:58;101285.00;;;6.70
69545;BMP180;56766;52.260;20.746;2023-05-07T06:13:25;101292.80;;;6.70
69545;BMP180;56766;52.260;20.746;2023-05-07T06:15:51;101294.00;;;6.70
69545;BMP180;56766;52.260;20.746;2023-05-07T06:18:18;101294.60;;;6.70
69545;BMP180;56766;52.260;20.746;2023-05-07T06:20:44;101303.20;;;6.70
69545;BMP180;56766;52.260;20.746;2023-05-07T06:23:11;101300.40;;;6.70
69545;BMP180;56766;52.260;20.746;2023-05-07T06:25:37;101303.00;;;6.70
69545;BMP180;56766;52.260;20.746;2023-05-07T06:28:05;101308.20;;;6.70
69545;BMP180;56766;52.260;20.746;2023-05-07T06:30:32;101303.40;;;6.64
69545;BMP180;56766;52.260;20.746;2023-05-07T06:32:58;101305.00;;;6.62
69545;BMP180;56766;52.260;20.746;2023-05-07T06:35:25;101303.80;;;6.68
69545;BMP180;56766;52.260;20.746;2023-05-07T06:37:51;101304.00;;;6.80
69545;BMP180;56766;52.260;20.746;2023-05-07T06:40:18;101295.20;;;6.80
69545;BMP180;56766;52.260;20.746;2023-05-07T06:42:45;101294.80;;;6.86
69545;BMP180;56766;52.260;20.746;2023-05-07T06:45:12;101292.40;;;7.00
69545;BMP180;56766;52.260;20.746;2023-05-07T06:47:39;101296.80;;;7.18
69545;BMP180;56766;52.260;20.746;2023-05-07T06:50:06;101294.80;;;7.30
69545;BMP180;56766;52.260;20.746;2023-05-07T06:52:33;101295.00;;;7.40
69545;BMP180;56766;52.260;20.746;2023-05-07T06:55:00;101299.60;;;7.50
69545;BMP180;56766;52.260;20.746;2023-05-07T06:57:26;101300.40;;;7.50
69545;BMP180;56766;52.260;20.746;2023-05-07T06:59:53;101308.00;;;7.50
69545;BMP180;56766;52.260;20.746;2023-05-07T07:02:20;101306.80;;;7.50
69545;BMP180;56766;52.260;20.746;2023-05-07T07:04:47;101311.60;;;7.50
69545;BMP180;56766;52.260;20.746;2023-05-07T07:07:13;101314.40;;;7.60
69545;BMP180;56766;52.260;20.746;2023-05-07T07:09:40;101309.80;;;7.70
69545;BMP180;56766;52.260;20.746;2023-05-07T07:12:06;101311.20;;;7.88
69545;BMP180;56766;52.260;20.746;2023-05-07T07:14:32;101309.20;;;8.00
69545;BMP180;56766;52.260;20.746;2023-05-07T07:16:58;101316.60;;;8.10
69545;BMP180;56766;52.260;20.746;2023-05-07T07:19:26;101318.00;;;8.30
69545;BMP180;56766;52.260;20.746;2023-05-07T07:21:53;101312.60;;;8.40
69545;BMP180;56766;52.260;20.746;2023-05-07T07:24:20;101316.20;;;8.50
69545;BMP180;56766;52.260;20.746;2023-05-07T07:26:49;101319.00;;;8.80
69545;BMP180;56766;52.260;20.746;2023-05-07T07:29:26;101326.00;;;9.04
69545;BMP180;56766;52.260;20.746;2023-05-07T07:31:53;101321.20;;;9.28
69545;BMP180;56766;52.260;20.746;2023-05-07T07:34:19;101326.20;;;9.40
69545;BMP180;56766;52.260;20.746;2023-05-07T07:36:47;101325.60;;;9.40
69545;BMP180;56766;52.260;20.746;2023-05-07T07:39:22;101330.00;;;9.50
69545;BMP180;56766;52.260;20.746;2023-05-07T07:41:49;101333.20;;;9.50
69545;BMP180;56766;52.260;20.746;2023-05-07T07:44:16;101324.60;;;9.44
69545;BMP180;56766;52.260;20.746;2023-05-07T07:46:43;101324.80;;;9.40
69545;BMP180;56766;52.260;20.746;2023-05-07T07:49:11;101331.00;;;9.30
69545;BMP180;56766;52.260;20.746;2023-05-07T07:51:37;101325.00;;;9.20
69545;BMP180;56766;52.260;20.746;2023-05-07T07:54:04;101329.60;;;9.42
69545;BMP180;56766;52.260;20.746;2023-05-07T07:56:32;101323.60;;;9.68
69545;BMP180;56766;52.260;20.746;2023-05-07T07:59:05;101328.40;;;9.90
69545;BMP180;56766;52.260;20.746;2023-05-07T08:01:32;101331.60;;;10.10
69545;BMP180;56766;52.260;20.746;2023-05-07T08:04:01;101328.20;;;10.30
69545;BMP180;56766;52.260;20.746;2023-05-07T08:06:29;101332.60;;;10.40
69545;BMP180;56766;52.260;20.746;2023-05-07T08:08:57;101330.20;;;10.44
69545;BMP180;56766;52.260;20.746;2023-05-07T08:11:27;101339.20;;;10.70
69545;BMP180;56766;52.260;20.746;2023-05-07T08:14:05;101338.60;;;10.80
69545;BMP180;56766;52.260;20.746;2023-05-07T08:16:34;101340.40;;;11.00
69545;BMP180;56766;52.260;20.746;2023-05-07T08:19:00;101338.00;;;10.94
69545;BMP180;56766;52.260;20.746;2023-05-07T08:21:38;101336.60;;;10.90
69545;BMP180;56766;52.260;20.746;2023-05-07T08:24:08;101343.40;;;10.80
69545;BMP180;56766;52.260;20.746;2023-05-07T08:26:35;101340.80;;;10.80
69545;BMP180;56766;52.260;20.746;2023-05-07T08:29:02;101342.60;;;10.80
69545;BMP180;56766;52.260;20.746;2023-05-07T08:31:37;101344.00;;;10.80
69545;BMP180;56766;52.260;20.746;2023-05-07T08:34:06;101340.00;;;10.78
69545;BMP180;56766;52.260;20.746;2023-05-07T08:36:33;101345.20;;;10.60
69545;BMP180;56766;52.260;20.746;2023-05-07T08:39:00;101348.80;;;10.60
69545;BMP180;56766;52.260;20.746;2023-05-07T08:41:30;101345.00;;;10.60
69545;BMP180;56766;52.260;20.746;2023-05-07T08:43:59;101349.40;;;10.60
69545;BMP180;56766;52.260;20.746;2023-05-07T08:46:46;101352.80;;;10.80
69545;BMP180;56766;52.260;20.746;2023-05-07T08:49:40;101357.40;;;11.30
69545;BMP180;56766;52.260;20.746;2023-05-07T08:52:31;101354.80;;;11.30
69545;BMP180;56766;52.260;20.746;2023-05-07T08:55:04;101358.60;;;11.30
69545;BMP180;56766;52.260;20.746;2023-05-07T08:57:30;101359.60;;;11.56
69545;BMP180;56766;52.260;20.746;2023-05-07T08:59:57;101364.20;;;11.80
69545;BMP180;56766;52.260;20.746;2023-05-07T09:02:39;101362.60;;;11.60
69545;BMP180;56766;52.260;20.746;2023-05-07T09:05:19;101364.20;;;11.30
69545;BMP180;56766;52.260;20.746;2023-05-07T09:07:47;101366.60;;;11.10
69545;BMP180;56766;52.260;20.746;2023-05-07T09:10:19;101363.40;;;11.10
69545;BMP180;56766;52.260;20.746;2023-05-07T09:12:53;101362.60;;;11.02
69545;BMP180;56766;52.260;20.746;2023-05-07T09:15:20;101360.40;;;11.22
69545;BMP180;56766;52.260;20.746;2023-05-07T09:17:46;101355.20;;;11.50
69545;BMP180;56766;52.260;20.746;2023-05-07T09:20:22;101347.60;;;11.68
69545;BMP180;56766;52.260;20.746;2023-05-07T09:23:02;101359.80;;;12.10
69545;BMP180;56766;52.260;20.746;2023-05-07T09:25:39;101366.40;;;11.88
69545;BMP180;56766;52.260;20.746;2023-05-07T09:28:10;101364.60;;;11.60
69545;BMP180;56766;52.260;20.746;2023-05-07T09:30:39;101371.40;;;11.46
69545;BMP180;56766;52.260;20.746;2023-05-07T09:33:21;101383.20;;;11.42
69545;BMP180;56766;52.260;20.746;2023-05-07T09:36:03;101379.80;;;11.98
69545;BMP180;56766;52.260;20.746;2023-05-07T09:38:30;101382.20;;;12.40
69545;BMP180;56766;52.260;20.746;2023-05-07T09:41:15;101376.00;;;12.50
69545;BMP180;56766;52.260;20.746;2023-05-07T09:43:58;101390.20;;;12.60
69545;BMP180;56766;52.260;20.746;2023-05-07T09:46:37;101383.80;;;12.60
69545;BMP180;56766;52.260;20.746;2023-05-07T09:49:11;101385.60;;;12.74
69545;BMP180;56766;52.260;20.746;2023-05-07T09:52:09;101383.80;;;13.20
69545;BMP180;56766;52.260;20.746;2023-05-07T09:54:46;101381.60;;;13.30
69545;BMP180;56766;52.260;20.746;2023-05-07T09:57:25;101388.20;;;12.70
69545;BMP180;56766;52.260;20.746;2023-05-07T10:00:03;101397.00;;;12.30
69545;BMP180;56766;52.260;20.746;2023-05-07T10:02:52;101397.60;;;12.00
69545;BMP180;56766;52.260;20.746;2023-05-07T10:05:27;101399.60;;;11.80
69545;BMP180;56766;52.260;20.746;2023-05-07T10:07:55;101399.20;;;11.80
69545;BMP180;56766;52.260;20.746;2023-05-07T10:10:24;101402.60;;;11.86
69545;BMP180;56766;52.260;20.746;2023-05-07T10:13:10;101404.20;;;12.34
69545;BMP180;56766;52.260;20.746;2023-05-07T10:15:46;101409.60;;;13.16
69545;BMP180;56766;52.260;20.746;2023-05-07T10:18:22;101406.80;;;13.40
69545;BMP180;56766;52.260;20.746;2023-05-07T10:20:53;101402.80;;;13.20
69545;BMP180;56766;52.260;20.746;2023-05-07T10:23:49;101406.60;;;13.10
69545;BMP180;56766;52.260;20.746;2023-05-07T10:26:40;101406.40;;;13.10
69545;BMP180;56766;52.260;20.746;2023-05-07T10:33:23;101392.60;;;14.10
69545;BMP180;56766;52.260;20.746;2023-05-07T10:36:02;101388.20;;;14.10
69545;BMP180;56766;52.260;20.746;2023-05-07T10:38:52;101385.60;;;14.20
69545;BMP180;56766;52.260;20.746;2023-05-07T10:41:27;101400.40;;;14.52
69545;BMP180;56766;52.260;20.746;2023-05-07T10:44:37;101395.40;;;14.84
69545;BMP180;56766;52.260;20.746;2023-05-07T10:47:15;101403.40;;;15.20
69545;BMP180;56766;52.260;20.746;2023-05-07T10:53:20;101405.20;;;14.72
69545;BMP180;56766;52.260;20.746;2023-05-07T10:59:54;101406.20;;;13.86
69545;BMP180;56766;52.260;20.746;2023-05-07T11:03:07;101412.00;;;13.70
69545;BMP180;56766;52.260;20.746;2023-05-07T11:09:59;101411.20;;;12.90
69545;BMP180;56766;52.260;20.746;2023-05-07T11:13:48;101416.00;;;12.70
69545;BMP180;56766;52.260;20.746;2023-05-07T11:16:25;101420.20;;;12.70
69545;BMP180;56766;52.260;20.746;2023-05-07T11:20:07;101423.80;;;12.80
69545;BMP180;56766;52.260;20.746;2023-05-07T11:23:04;101425.20;;;13.10
69545;BMP180;56766;52.260;20.746;2023-05-07T11:26:21;101429.60;;;13.64
69545;BMP180;56766;52.260;20.746;2023-05-07T11:29:21;101431.20;;;13.80
69545;BMP180;56766;52.260;20.746;2023-05-07T11:32:41;101430.20;;;13.60
69545;BMP180;56766;52.260;20.746;2023-05-07T11:35:34;101428.00;;;13.40
69545;BMP180;56766;52.260;20.746;2023-05-07T11:38:24;101431.80;;;13.50
69545;BMP180;56766;52.260;20.746;2023-05-07T11:40:58;101437.20;;;13.60
69545;BMP180;56766;52.260;20.746;2023-05-07T11:43:58;101433.40;;;13.56
69545;BMP180;56766;52.260;20.746;2023-05-07T11:46:53;101444.60;;;13.60
69545;BMP180;56766;52.260;20.746;2023-05-07T11:49:48;101439.40;;;13.90
69545;BMP180;56766;52.260;20.746;2023-05-07T11:55:40;101442.40;;;14.18
69545;BMP180;56766;52.260;20.746;2023-05-07T11:58:45;101438.40;;;14.40
69545;BMP180;56766;52.260;20.746;2023-05-07T12:04:55;101433.80;;;14.60
69545;BMP180;56766;52.260;20.746;2023-05-07T12:08:06;101431.00;;;14.50
69545;BMP180;56766;52.260;20.746;2023-05-07T12:10:57;101433.80;;;14.34
69545;BMP180;56766;52.260;20.746;2023-05-07T12:17:08;101450.80;;;14.20
69545;BMP180;56766;52.260;20.746;2023-05-07T12:20:11;101454.60;;;14.20
69545;BMP180;56766;52.260;20.746;2023-05-07T12:26:26;101449.20;;;14.66
69545;BMP180;56766;52.260;20.746;2023-05-07T12:29:25;101450.20;;;15.36
69545;BMP180;56766;52.260;20.746;2023-05-07T12:33:10;101444.60;;;15.90
69545;BMP180;56766;52.260;20.746;2023-05-07T12:36:02;101451.00;;;15.72
69545;BMP180;56766;52.260;20.746;2023-05-07T12:39:11;101446.60;;;15.28
69545;BMP180;56766;52.260;20.746;2023-05-07T12:42:40;101451.20;;;15.08
69545;BMP180;56766;52.260;20.746;2023-05-07T12:45:45;101453.60;;;15.20
69545;BMP180;56766;52.260;20.746;2023-05-07T12:48:55;101453.80;;;15.10
69545;BMP180;56766;52.260;20.746;2023-05-07T12:52:21;101455.60;;;15.10
69545;BMP180;56766;52.260;20.746;2023-05-07T12:55:25;101455.00;;;15.26
69545;BMP180;56766;52.260;20.746;2023-05-07T12:57:53;101457.80;;;15.30
69545;BMP180;56766;52.260;20.746;2023-05-07T13:00:37;101452.80;;;15.30
69545;BMP180;56766;52.260;20.746;2023-05-07T13:03:04;101449.00;;;15.40
69545;BMP180;56766;52.260;20.746;2023-05-07T13:05:32;101454.00;;;15.30
69545;BMP180;56766;52.260;20.746;2023-05-07T13:07:58;101450.60;;;15.10
69545;BMP180;56766;52.260;20.746;2023-05-07T13:10:25;101453.00;;;14.72
69545;BMP180;56766;52.260;20.746;2023-05-07T13:12:52;101457.00;;;14.62
69545;BMP180;56766;52.260;20.746;2023-05-07T13:15:19;101457.00;;;14.70
69545;BMP180;56766;52.260;20.746;2023-05-07T13:17:45;101457.00;;;14.62
69545;BMP180;56766;52.260;20.746;2023-05-07T13:20:11;101457.40;;;14.48
69545;BMP180;56766;52.260;20.746;2023-05-07T13:22:39;101459.80;;;14.10
69545;BMP180;56766;52.260;20.746;2023-05-07T13:25:06;101454.60;;;14.00
69545;BMP180;56766;52.260;20.746;2023-05-07T13:27:32;101457.80;;;14.02
69545;BMP180;56766;52.260;20.746;2023-05-07T13:30:04;101459.20;;;14.00
69545;BMP180;56766;52.260;20.746;2023-05-07T13:32:30;101455.20;;;14.10
69545;BMP180;56766;52.260;20.746;2023-05-07T13:34:58;101452.60;;;14.20
69545;BMP180;56766;52.260;20.746;2023-05-07T13:37:24;101457.80;;;14.20
69545;BMP180;56766;52.260;20.746;2023-05-07T13:39:50;101448.60;;;14.20
69545;BMP180;56766;52.260;20.746;2023-05-07T13:42:16;101449.80;;;13.96
69545;BMP180;56766;52.260;20.746;2023-05-07T13:44:42;101450.80;;;13.90
69545;BMP180;56766;52.260;20.746;2023-05-07T13:47:09;101450.60;;;13.82
69545;BMP180;56766;52.260;20.746;2023-05-07T13:49:35;101453.00;;;13.74
69545;BMP180;56766;52.260;20.746;2023-05-07T13:52:02;101454.60;;;13.60
69545;BMP180;56766;52.260;20.746;2023-05-07T13:54:34;101457.00;;;13.32
69545;BMP180;56766;52.260;20.746;2023-05-07T14:00:18;101459.60;;;13.00
69545;BMP180;56766;52.260;20.746;2023-05-07T14:03:04;101458.80;;;12.80
69545;BMP180;56766;52.260;20.746;2023-05-07T14:05:33;101451.80;;;12.60
69545;BMP180;56766;52.260;20.746;2023-05-07T14:08:00;101459.80;;;12.64
69545;BMP180;56766;52.260;20.746;2023-05-07T14:10:32;101462.80;;;12.90
69545;BMP180;56766;52.260;20.746;2023-05-07T14:13:12;101469.40;;;13.00
69545;BMP180;56766;52.260;20.746;2023-05-07T14:15:41;101467.40;;;12.90
69545;BMP180;56766;52.260;20.746;2023-05-07T14:18:18;101466.80;;;13.10
69545;BMP180;56766;52.260;20.746;2023-05-07T14:20:51;101464.80;;;13.26
69545;BMP180;56766;52.260;20.746;2023-05-07T14:23:27;101465.20;;;13.40
69545;BMP180;56766;52.260;20.746;2023-05-07T14:25:59;101464.20;;;13.50
69545;BMP180;56766;52.260;20.746;2023-05-07T14:28:28;101462.00;;;13.60
69545;BMP180;56766;52.260;20.746;2023-05-07T14:31:07;101465.80;;;13.70
69545;BMP180;56766;52.260;20.746;2023-05-07T14:33:42;101464.00;;;13.86
69545;BMP180;56766;52.260;20.746;2023-05-07T14:36:12;101453.40;;;13.90
69545;BMP180;56766;52.260;20.746;2023-05-07T14:38:38;101460.80;;;13.80
69545;BMP180;56766;52.260;20.746;2023-05-07T14:41:25;101462.60;;;13.70
69545;BMP180;56766;52.260;20.746;2023-05-07T14:43:54;101467.20;;;13.60
69545;BMP180;56766;52.260;20.746;2023-05-07T14:46:21;101470.40;;;13.60
69545;BMP180;56766;52.260;20.746;2023-05-07T14:48:48;101469.00;;;13.70
69545;BMP180;56766;52.260;20.746;2023-05-07T14:51:18;101473.00;;;13.80
69545;BMP180;56766;52.260;20.746;2023-05-07T14:53:44;101471.40;;;13.74